createdAt,value
2019-04-02T00:00:10.562Z,58.63
2019-04-02T00:01:10.523Z,58.7
2019-04-02T00:02:11.723Z,58.41
2019-04-02T00:03:10.581Z,58.59
2019-04-02T00:04:10.508Z,58.7
2019-04-02T00:05:10.488Z,58.8
2019-04-02T00:06:10.569Z,58.73
2019-04-02T00:07:10.517Z,58.58
2019-04-02T00:08:10.511Z,58.8
2019-04-02T00:09:10.530Z,58.82
2019-04-02T00:10:10.486Z,58.91
2019-04-02T00:11:10.518Z,59.09
2019-04-02T00:12:10.491Z,58.85
2019-04-02T00:13:10.529Z,58.97
2019-04-02T00:14:10.518Z,58.79
2019-04-02T00:15:10.485Z,58.91
2019-04-02T00:16:12.768Z,58.75
2019-04-02T00:17:10.857Z,58.83
2019-04-02T00:18:10.538Z,58.82
2019-04-02T00:19:10.507Z,58.94
2019-04-02T00:20:10.499Z,58.99
2019-04-02T00:21:10.491Z,59.23
2019-04-02T00:22:10.496Z,59.08
2019-04-02T00:23:10.589Z,59.2
2019-04-02T00:24:10.554Z,59.28
2019-04-02T00:25:10.521Z,59.37
2019-04-02T00:26:10.532Z,59.36
2019-04-02T00:27:10.518Z,59.4
2019-04-02T00:28:10.486Z,59.28
2019-04-02T00:29:10.806Z,59.4
2019-04-02T00:30:10.527Z,59.24
2019-04-02T00:31:13.899Z,59.38
2019-04-02T00:32:12.010Z,59.29
2019-04-02T00:33:10.601Z,59.3
2019-04-02T00:34:10.722Z,59.4
2019-04-02T00:35:10.556Z,59.22
2019-04-02T00:36:10.489Z,59.42
2019-04-02T00:37:10.466Z,59.52
2019-04-02T00:38:10.477Z,59.39
2019-04-02T00:39:10.495Z,59.63
2019-04-02T00:40:10.496Z,59.53
2019-04-02T00:41:10.449Z,59.46
2019-04-02T00:42:11.511Z,59.47
2019-04-02T00:43:10.491Z,59.66
2019-04-02T00:44:10.495Z,59.8
2019-04-02T00:45:10.456Z,59.82
2019-04-02T00:46:10.438Z,59.77
2019-04-02T00:47:10.447Z,59.82
2019-04-02T00:48:10.459Z,59.71
2019-04-02T00:49:10.481Z,59.82
2019-04-02T00:50:13.100Z,59.98
2019-04-02T00:51:10.477Z,59.96
2019-04-02T00:52:10.436Z,60.05
2019-04-02T00:53:10.509Z,60.01
2019-04-02T00:54:10.460Z,59.9
2019-04-02T00:55:10.500Z,60.06
2019-04-02T00:56:10.507Z,60.12
2019-04-02T00:57:10.424Z,60.03
2019-04-02T00:58:10.428Z,60.04
2019-04-02T00:59:10.461Z,60.18
2019-04-02T01:00:10.486Z,60.14
2019-04-02T01:01:10.465Z,60.33
2019-04-02T01:02:10.421Z,60.08
2019-04-02T01:03:12.979Z,60.23
2019-04-02T01:04:10.874Z,60.16
2019-04-02T01:05:10.460Z,60.19
2019-04-02T01:06:10.506Z,60.11
2019-04-02T01:07:10.481Z,60.11
2019-04-02T01:08:10.415Z,60.14
2019-04-02T01:09:11.532Z,60.02
2019-04-02T01:10:10.455Z,59.97
2019-04-02T01:11:10.472Z,59.97
2019-04-02T01:12:10.517Z,60.17
2019-04-02T01:13:10.439Z,60.1
2019-04-02T01:14:10.477Z,60.28
2019-04-02T01:15:10.436Z,60.15
2019-04-02T01:16:10.710Z,60.21
2019-04-02T01:17:11.949Z,60.34
2019-04-02T01:18:10.858Z,60.31
2019-04-02T01:19:10.486Z,60.26
2019-04-02T01:20:10.513Z,60.28
2019-04-02T01:21:10.429Z,60.15
2019-04-02T01:22:10.437Z,60.4
2019-04-02T01:23:10.421Z,60.42
2019-04-02T01:24:10.400Z,60.5
2019-04-02T01:25:10.392Z,60.67
2019-04-02T01:26:10.405Z,60.8
2019-04-02T01:27:10.437Z,60.83
2019-04-02T01:28:10.435Z,60.84
2019-04-02T01:29:11.875Z,60.72
2019-04-02T01:30:10.483Z,60.7
2019-04-02T01:31:10.382Z,60.74
2019-04-02T01:32:10.440Z,60.63
2019-04-02T01:33:11.748Z,60.67
2019-04-02T01:34:10.474Z,60.77
2019-04-02T01:35:10.425Z,60.72
2019-04-02T01:36:10.417Z,60.63
2019-04-02T01:37:10.458Z,60.57
2019-04-02T01:38:10.557Z,60.74
2019-04-02T01:39:10.375Z,60.77
2019-04-02T01:40:10.395Z,60.83
2019-04-02T01:41:10.443Z,60.92
2019-04-02T01:42:10.358Z,60.9
2019-04-02T01:43:10.512Z,60.88
2019-04-02T01:44:10.397Z,61.07
2019-04-02T01:45:10.405Z,60.98
2019-04-02T01:46:10.438Z,60.98
2019-04-02T01:47:10.366Z,61.23
2019-04-02T01:48:10.367Z,61.13
2019-04-02T01:49:11.528Z,61.43
2019-04-02T01:50:10.367Z,61.45
2019-04-02T01:51:10.480Z,61.57
2019-04-02T01:52:10.424Z,61.39
2019-04-02T01:53:10.379Z,61.4
2019-04-02T01:54:10.455Z,61.7
2019-04-02T01:55:11.718Z,61.3
2019-04-02T01:56:10.376Z,61.51
2019-04-02T01:57:10.355Z,61.59
2019-04-02T01:58:10.404Z,61.38
2019-04-02T01:59:10.459Z,61.38
2019-04-02T02:00:10.465Z,61.23
2019-04-02T02:01:10.398Z,61.56
2019-04-02T02:02:10.399Z,61.56
2019-04-02T02:03:10.410Z,61.43
2019-04-02T02:04:10.406Z,61.48
2019-04-02T02:05:10.344Z,61.55
2019-04-02T02:06:12.529Z,61.43
2019-04-02T02:07:11.077Z,61.37
2019-04-02T02:08:10.370Z,61.29
2019-04-02T02:09:10.374Z,61.39
2019-04-02T02:10:10.385Z,61.34
2019-04-02T02:11:10.358Z,61.34
2019-04-02T02:12:10.439Z,61.47
2019-04-02T02:13:10.330Z,61.56
2019-04-02T02:14:10.339Z,61.41
2019-04-02T02:15:10.353Z,61.27
2019-04-02T02:16:10.370Z,61.38
2019-04-02T02:17:10.382Z,61.24
2019-04-02T02:18:10.367Z,61.57
2019-04-02T02:19:10.318Z,61.5
2019-04-02T02:20:10.402Z,61.4
2019-04-02T02:21:10.503Z,61.28
2019-04-02T02:22:10.621Z,61.9
2019-04-02T02:23:11.910Z,61.89
2019-04-02T02:24:10.365Z,61.78
2019-04-02T02:25:10.354Z,61.94
2019-04-02T02:26:10.373Z,61.84
2019-04-02T02:27:10.355Z,61.86
2019-04-02T02:28:10.385Z,61.86
2019-04-02T02:29:10.377Z,61.76
2019-04-02T02:30:10.361Z,61.98
2019-04-02T02:31:10.461Z,61.83
2019-04-02T02:32:10.379Z,62.05
2019-04-02T02:33:10.493Z,61.88
2019-04-02T02:34:10.437Z,62.15
2019-04-02T02:35:10.497Z,61.99
2019-04-02T02:36:10.987Z,61.79
2019-04-02T02:37:11.548Z,61.85
2019-04-02T02:38:12.015Z,61.93
2019-04-02T02:39:12.310Z,61.87
2019-04-02T02:40:11.613Z,61.69
2019-04-02T02:41:12.426Z,62.06
2019-04-02T02:42:13.487Z,61.92
2019-04-02T02:43:13.514Z,61.76
2019-04-02T02:44:13.808Z,61.71
2019-04-02T02:45:10.294Z,61.86
2019-04-02T02:46:10.305Z,61.79
2019-04-02T02:47:10.336Z,61.92
2019-04-02T02:48:10.327Z,61.99
2019-04-02T02:49:10.346Z,61.94
2019-04-02T02:50:10.354Z,62.24
2019-04-02T02:51:10.323Z,62.37
2019-04-02T02:52:10.605Z,62.29
2019-04-02T02:53:10.347Z,62.5
2019-04-02T02:54:10.311Z,62.46
2019-04-02T02:55:10.322Z,62.24
2019-04-02T02:56:10.410Z,62.43
2019-04-02T02:57:10.472Z,62.37
2019-04-02T02:58:10.330Z,62.29
2019-04-02T02:59:10.282Z,62.18
2019-04-02T03:00:10.671Z,62.37
2019-04-02T03:01:10.357Z,62.36
2019-04-02T03:02:10.401Z,62.42
2019-04-02T03:03:10.430Z,62.28
2019-04-02T03:04:11.621Z,62.29
2019-04-02T03:05:10.760Z,62.34
2019-04-02T03:06:10.323Z,62.35
2019-04-02T03:07:10.317Z,62.31
2019-04-02T03:08:10.277Z,62.4
2019-04-02T03:09:10.301Z,62.34
2019-04-02T03:10:12.753Z,62.34
2019-04-02T03:11:10.258Z,62.35
2019-04-02T03:12:11.313Z,62.38
2019-04-02T03:13:10.357Z,62.44
2019-04-02T03:14:10.465Z,62.42
2019-04-02T03:15:10.497Z,62.42
2019-04-02T03:16:12.206Z,62.49
2019-04-02T03:17:13.113Z,62.41
2019-04-02T03:18:13.583Z,62.54
2019-04-02T03:19:14.638Z,62.53
2019-04-02T03:20:10.368Z,62.8
2019-04-02T03:21:10.313Z,62.78
2019-04-02T03:22:10.436Z,62.78
2019-04-02T03:23:10.309Z,62.85
2019-04-02T03:24:10.296Z,62.85
2019-04-02T03:25:10.325Z,62.79
2019-04-02T03:26:10.265Z,62.71
2019-04-02T03:27:10.798Z,62.86
2019-04-02T03:28:10.282Z,62.81
2019-04-02T03:29:10.320Z,63.03
2019-04-02T03:30:10.302Z,63.02
2019-04-02T03:31:10.258Z,63.05
2019-04-02T03:32:12.020Z,62.87
2019-04-02T03:33:10.358Z,62.95
2019-04-02T03:34:12.383Z,63.03
2019-04-02T03:35:10.369Z,63.1
2019-04-02T03:36:10.258Z,63.16
2019-04-02T03:37:10.253Z,63.1
2019-04-02T03:38:10.251Z,63.38
2019-04-02T03:39:10.258Z,63.13
2019-04-02T03:40:10.352Z,63.22
2019-04-02T03:41:11.106Z,63.37
2019-04-02T03:42:11.620Z,63.27
2019-04-02T03:43:12.631Z,63.02
2019-04-02T03:44:14.073Z,63.29
2019-04-02T03:45:10.219Z,63.38
2019-04-02T03:46:10.222Z,63.33
2019-04-02T03:47:10.286Z,63.43
2019-04-02T03:48:10.334Z,63.48
2019-04-02T03:49:15.533Z,63.38
2019-04-02T03:50:10.304Z,63.28
2019-04-02T03:51:10.310Z,63.52
2019-04-02T03:52:10.327Z,63.29
2019-04-02T03:53:10.268Z,63.4
2019-04-02T03:54:10.311Z,63.56
2019-04-02T03:55:10.325Z,63.4
2019-04-02T03:56:10.329Z,63.4
2019-04-02T03:57:10.305Z,63.37
2019-04-02T03:58:10.242Z,63.45
2019-04-02T03:59:10.242Z,63.5
2019-04-02T04:00:10.341Z,63.54
2019-04-02T04:01:10.202Z,63.65
2019-04-02T04:02:10.194Z,63.58
2019-04-02T04:03:10.339Z,63.7
2019-04-02T04:04:10.246Z,63.61
2019-04-02T04:05:10.404Z,63.47
2019-04-02T04:06:11.160Z,63.73
2019-04-02T04:07:10.233Z,63.61
2019-04-02T04:08:11.284Z,63.48
2019-04-02T04:09:10.800Z,63.44
2019-04-02T04:10:11.415Z,63.46
2019-04-02T04:11:12.546Z,63.54
2019-04-02T04:12:13.128Z,63.82
2019-04-02T04:13:13.762Z,63.76
2019-04-02T04:14:10.226Z,63.6
2019-04-02T04:15:10.295Z,63.52
2019-04-02T04:16:12.152Z,63.62
2019-04-02T04:17:10.231Z,63.8
2019-04-02T04:18:10.257Z,63.71
2019-04-02T04:19:10.341Z,63.59
2019-04-02T04:20:10.186Z,63.86
2019-04-02T04:21:10.267Z,63.66
2019-04-02T04:22:11.093Z,63.62
2019-04-02T04:23:10.293Z,63.81
2019-04-02T04:24:10.259Z,63.75
2019-04-02T04:25:10.217Z,63.76
2019-04-02T04:26:10.218Z,63.76
2019-04-02T04:27:10.314Z,63.91
2019-04-02T04:28:10.580Z,63.88
2019-04-02T04:29:10.506Z,63.81
2019-04-02T04:30:10.225Z,63.87
2019-04-02T04:31:10.177Z,64.13
2019-04-02T04:32:10.605Z,63.89
2019-04-02T04:33:10.344Z,63.93
2019-04-02T04:34:13.197Z,64.05
2019-04-02T04:35:11.081Z,63.96
2019-04-02T04:36:11.949Z,64.06
2019-04-02T04:37:11.976Z,64.11
2019-04-02T04:38:12.689Z,64.08
2019-04-02T04:39:20.698Z,64.01
2019-04-02T04:40:10.377Z,64.06
2019-04-02T04:41:10.151Z,64.03
2019-04-02T04:42:10.153Z,63.79
2019-04-02T04:43:10.342Z,63.99
2019-04-02T04:44:10.219Z,64.05
2019-04-02T04:45:10.206Z,64.02
2019-04-02T04:46:10.205Z,64.12
2019-04-02T04:47:10.195Z,64.24
2019-04-02T04:48:10.167Z,64.21
2019-04-02T04:49:10.273Z,64.43
2019-04-02T04:50:10.290Z,64.32
2019-04-02T04:51:10.188Z,64.08
2019-04-02T04:52:10.151Z,64.41
2019-04-02T04:53:10.193Z,64.54
2019-04-02T04:54:10.624Z,64.48
2019-04-02T04:55:10.673Z,64.61
2019-04-02T04:56:10.165Z,64.65
2019-04-02T04:57:10.224Z,64.57
2019-04-02T04:58:10.438Z,64.64
2019-04-02T04:59:10.189Z,64.56
2019-04-02T05:00:10.159Z,64.48
2019-04-02T05:01:10.155Z,64.58
2019-04-02T05:02:10.311Z,64.65
2019-04-02T05:03:10.155Z,64.82
2019-04-02T05:04:10.176Z,64.7
2019-04-02T05:05:10.152Z,64.83
2019-04-02T05:06:10.214Z,64.94
2019-04-02T05:07:10.157Z,64.89
2019-04-02T05:08:10.172Z,64.81
2019-04-02T05:09:13.287Z,64.63
2019-04-02T05:10:10.158Z,64.63
2019-04-02T05:11:10.222Z,64.66
2019-04-02T05:12:10.128Z,64.89
2019-04-02T05:13:10.114Z,64.75
2019-04-02T05:14:17.361Z,64.88
2019-04-02T05:15:10.147Z,64.67
2019-04-02T05:16:10.551Z,64.54
2019-04-02T05:17:10.115Z,64.86
2019-04-02T05:18:10.101Z,64.89
2019-04-02T05:19:10.542Z,64.74
2019-04-02T05:20:10.135Z,64.6
2019-04-02T05:21:10.175Z,65.1
2019-04-02T05:22:10.128Z,65.01
2019-04-02T05:23:12.167Z,64.87
2019-04-02T05:24:13.308Z,65.12
2019-04-02T05:25:12.386Z,65
2019-04-02T05:26:11.065Z,65.02
2019-04-02T05:27:11.137Z,64.93
2019-04-02T05:28:10.145Z,64.9
2019-04-02T05:29:10.125Z,64.67
2019-04-02T05:30:10.080Z,64.9
2019-04-02T05:31:10.086Z,64.61
2019-04-02T05:32:10.081Z,64.61
2019-04-02T05:33:10.102Z,64.81
2019-04-02T05:34:10.146Z,64.7
2019-04-02T05:35:10.084Z,64.64
2019-04-02T05:36:10.072Z,64.74
2019-04-02T05:37:10.495Z,64.51
2019-04-02T05:38:10.396Z,64.43
2019-04-02T05:39:10.131Z,64.47
2019-04-02T05:40:10.098Z,64.43
2019-04-02T05:41:10.132Z,64.45
2019-04-02T05:42:12.885Z,64.68
2019-04-02T05:43:10.890Z,64.53
2019-04-02T05:44:10.234Z,64.36
2019-04-02T05:45:10.329Z,64.6
2019-04-02T05:46:10.764Z,64.57
2019-04-02T05:47:10.122Z,64.62
2019-04-02T05:48:10.083Z,64.71
2019-04-02T05:49:10.134Z,64.8
2019-04-02T05:50:10.077Z,64.92
2019-04-02T05:51:10.124Z,64.81
2019-04-02T05:52:10.046Z,64.71
2019-04-02T05:53:10.132Z,64.51
2019-04-02T05:54:11.197Z,64.71
2019-04-02T05:55:10.104Z,64.6
2019-04-02T05:56:10.087Z,64.44
2019-04-02T05:57:10.302Z,64.39
2019-04-02T05:58:10.114Z,64.58
2019-04-02T05:59:10.634Z,64.71
2019-04-02T06:00:10.068Z,64.63
2019-04-02T06:01:10.209Z,64.23
2019-04-02T06:02:10.096Z,64.61
2019-04-02T06:03:11.928Z,64.34
2019-04-02T06:04:11.846Z,64.44
2019-04-02T06:05:10.206Z,64.26
2019-04-02T06:06:10.077Z,64.46
2019-04-02T06:07:10.109Z,64.55
2019-04-02T06:08:10.039Z,64.25
2019-04-02T06:09:10.045Z,64.16
2019-04-02T06:10:10.066Z,64.2
2019-04-02T06:11:10.093Z,64.16
2019-04-02T06:12:10.061Z,64.26
2019-04-02T06:13:10.029Z,64.47
2019-04-02T06:14:10.110Z,64.27
2019-04-02T06:15:10.054Z,64.36
2019-04-02T06:16:10.078Z,64.45
2019-04-02T06:17:10.086Z,64.41
2019-04-02T06:18:10.122Z,64.34
2019-04-02T06:19:10.021Z,64.22
2019-04-02T06:20:10.257Z,64.18
2019-04-02T06:21:11.859Z,64.13
2019-04-02T06:22:09.992Z,64.1
2019-04-02T06:23:15.718Z,64.08
2019-04-02T06:24:10.122Z,64.15
2019-04-02T06:25:10.046Z,64.01
2019-04-02T06:26:10.035Z,64.09
2019-04-02T06:27:10.108Z,64.08
2019-04-02T06:28:09.988Z,64.04
2019-04-02T06:29:10.016Z,64
2019-04-02T06:30:10.038Z,64.2
2019-04-02T06:31:10.037Z,64.07
2019-04-02T06:32:10.046Z,63.85
2019-04-02T06:33:10.126Z,63.97
2019-04-02T06:34:10.367Z,64.08
2019-04-02T06:35:10.047Z,64.06
2019-04-02T06:36:09.978Z,64.01
2019-04-02T06:37:10.013Z,63.78
2019-04-02T06:38:09.996Z,63.72
2019-04-02T06:39:09.987Z,63.94
2019-04-02T06:40:10.022Z,63.84
2019-04-02T06:41:10.015Z,63.88
2019-04-02T06:42:13.705Z,63.78
2019-04-02T06:43:10.118Z,63.67
2019-04-02T06:44:10.025Z,63.44
2019-04-02T06:45:10.008Z,63.49
2019-04-02T06:46:10.017Z,63.58
2019-04-02T06:47:10.023Z,63.46
2019-04-02T06:48:10.055Z,63.31
2019-04-02T06:49:10.031Z,63.37
2019-04-02T06:50:10.380Z,63.14
2019-04-02T06:51:10.019Z,63.18
2019-04-02T06:52:10.072Z,63.14
2019-04-02T06:53:10.000Z,63.29
2019-04-02T06:54:10.006Z,63.13
2019-04-02T06:55:10.031Z,63.13
2019-04-02T06:56:10.054Z,62.98
2019-04-02T06:57:09.988Z,63.02
2019-04-02T06:58:10.038Z,62.97
2019-04-02T06:59:09.999Z,63.07
2019-04-02T07:00:13.332Z,62.9
2019-04-02T07:01:33.078Z,62.87
2019-04-02T07:02:10.014Z,63.06
2019-04-02T07:03:09.987Z,62.55
2019-04-02T07:04:10.031Z,62.76
2019-04-02T07:05:09.976Z,62.65
2019-04-02T07:06:09.953Z,62.64
2019-04-02T07:07:12.457Z,62.53
2019-04-02T07:08:15.772Z,62.47
2019-04-02T07:09:10.438Z,62.64
2019-04-02T07:10:10.079Z,62.61
2019-04-02T07:11:09.970Z,62.66
2019-04-02T07:12:10.056Z,62.61
2019-04-02T07:13:10.024Z,62.7
2019-04-02T07:14:09.946Z,62.52
2019-04-02T07:15:10.016Z,62.43
2019-04-02T07:16:10.019Z,62.17
2019-04-02T07:17:09.969Z,62.17
2019-04-02T07:18:09.951Z,62.66
2019-04-02T07:19:09.943Z,62.42
2019-04-02T07:20:10.002Z,62.51
2019-04-02T07:21:09.912Z,62.2
2019-04-02T07:22:09.963Z,62.45
2019-04-02T07:23:09.969Z,62.11
2019-04-02T07:24:09.935Z,62.16
2019-04-02T07:25:09.937Z,62
2019-04-02T07:26:10.132Z,61.76
2019-04-02T07:27:11.889Z,61.92
2019-04-02T07:28:13.023Z,61.81
2019-04-02T07:29:09.996Z,61.54
2019-04-02T07:30:09.934Z,61.57
2019-04-02T07:31:10.035Z,61.92
2019-04-02T07:32:09.957Z,61.9
2019-04-02T07:33:09.953Z,61.64
2019-04-02T07:34:09.970Z,61.74
2019-04-02T07:35:10.077Z,61.68
2019-04-02T07:36:10.036Z,61.5
2019-04-02T07:37:09.959Z,61.75
2019-04-02T07:38:10.054Z,61.85
2019-04-02T07:39:09.930Z,61.84
2019-04-02T07:40:09.982Z,61.99
2019-04-02T07:41:12.483Z,61.53
2019-04-02T07:42:09.937Z,61.71
2019-04-02T07:43:09.965Z,61.64
2019-04-02T07:44:10.046Z,61.93
2019-04-02T07:45:11.047Z,61.99
2019-04-02T07:46:09.983Z,61.95
2019-04-02T07:47:10.365Z,61.69
2019-04-02T07:48:10.555Z,61.71
2019-04-02T07:49:09.947Z,61.32
2019-04-02T07:50:09.939Z,61.13
2019-04-02T07:51:09.993Z,61.37
2019-04-02T07:52:09.919Z,61.27
2019-04-02T07:53:09.922Z,61.34
2019-04-02T07:54:09.915Z,61.34
2019-04-02T07:55:09.914Z,61.18
2019-04-02T07:56:09.914Z,61.34
2019-04-02T07:57:09.925Z,60.96
2019-04-02T07:58:09.933Z,61.15
2019-04-02T07:59:11.677Z,61.18
2019-04-02T08:00:10.903Z,60.91
2019-04-02T08:01:09.879Z,60.84
2019-04-02T08:02:09.935Z,61.06
2019-04-02T08:03:09.907Z,61.08
2019-04-02T08:04:09.977Z,61.16
2019-04-02T08:05:09.899Z,61.24
2019-04-02T08:06:09.931Z,61.24
2019-04-02T08:07:09.873Z,60.87
2019-04-02T08:08:09.916Z,61.1
2019-04-02T08:09:10.784Z,61.19
2019-04-02T08:10:10.551Z,61.04
2019-04-02T08:11:10.018Z,60.85
2019-04-02T08:12:09.881Z,61.1
2019-04-02T08:13:09.863Z,61.05
2019-04-02T08:14:09.976Z,60.75
2019-04-02T08:15:09.866Z,60.77
2019-04-02T08:16:09.947Z,60.72
2019-04-02T08:17:09.846Z,60.49
2019-04-02T08:18:09.917Z,60.16
2019-04-02T08:19:09.955Z,60.55
2019-04-02T08:20:10.850Z,60.76
2019-04-02T08:21:09.905Z,60.52
2019-04-02T08:22:09.925Z,60.4
2019-04-02T08:23:09.924Z,60.4
2019-04-02T08:24:09.926Z,60.66
2019-04-02T08:25:09.938Z,60.36
2019-04-02T08:26:09.862Z,60.57
2019-04-02T08:27:09.962Z,60.51
2019-04-02T08:28:13.245Z,60.53
2019-04-02T08:29:09.866Z,60.36
2019-04-02T08:30:09.868Z,60.08
2019-04-02T08:31:10.641Z,60.16
2019-04-02T08:32:09.848Z,60.02
2019-04-02T08:33:09.885Z,60.18
2019-04-02T08:34:12.329Z,59.71
2019-04-02T08:35:09.904Z,59.78
2019-04-02T08:36:09.909Z,59.44
2019-04-02T08:37:09.866Z,59.88
2019-04-02T08:38:09.954Z,59.46
2019-04-02T08:39:09.899Z,59.97
2019-04-02T08:40:09.889Z,59.79
2019-04-02T08:41:09.893Z,60.08
2019-04-02T08:42:09.851Z,59.55
2019-04-02T08:43:09.852Z,59.63
2019-04-02T08:44:09.913Z,59.91
2019-04-02T08:45:09.870Z,59.51
2019-04-02T08:46:09.882Z,60.17
2019-04-02T08:47:09.785Z,59.5
2019-04-02T08:48:09.903Z,59.51
2019-04-02T08:49:09.875Z,59.73
2019-04-02T08:50:09.824Z,59.31
2019-04-02T08:51:09.924Z,59.24
2019-04-02T08:52:10.156Z,59.91
2019-04-02T08:53:10.802Z,59.49
2019-04-02T08:54:09.800Z,60.22
2019-04-02T08:55:09.836Z,59.78
2019-04-02T08:56:09.849Z,59.64
2019-04-02T08:57:09.800Z,59.44
2019-04-02T08:58:09.850Z,58.89
2019-04-02T08:59:09.818Z,59.42
2019-04-02T09:00:09.813Z,59.17
2019-04-02T09:01:09.819Z,58.89
2019-04-02T09:02:12.069Z,58.77
2019-04-02T09:03:09.868Z,59.11
2019-04-02T09:04:09.938Z,58.88
2019-04-02T09:05:09.810Z,58.76
2019-04-02T09:06:12.333Z,59.06
2019-04-02T09:07:09.845Z,58.88
2019-04-02T09:08:09.823Z,58.43
2019-04-02T09:09:09.876Z,58.79
2019-04-02T09:10:09.804Z,58.71
2019-04-02T09:11:09.820Z,58.54
2019-04-02T09:12:09.851Z,58.79
2019-04-02T09:13:12.278Z,58.85
2019-04-02T09:14:10.242Z,58.63
2019-04-02T09:15:09.803Z,58.4
2019-04-02T09:16:09.776Z,58.67
2019-04-02T09:17:09.782Z,58.99
2019-04-02T09:18:09.851Z,59.28
2019-04-02T09:19:09.866Z,58.18
2019-04-02T09:20:09.804Z,58.08
2019-04-02T09:21:09.786Z,58.1
2019-04-02T09:22:09.809Z,57.97
2019-04-02T09:23:09.819Z,58.44
2019-04-02T09:24:09.811Z,58.37
2019-04-02T09:25:09.852Z,58.2
2019-04-02T09:26:19.045Z,57.93
2019-04-02T09:27:09.780Z,58.22
2019-04-02T09:28:09.854Z,57.59
2019-04-02T09:29:12.798Z,57.74
2019-04-02T09:30:09.832Z,57.52
2019-04-02T09:31:12.090Z,57.76
2019-04-02T09:32:09.758Z,57.67
2019-04-02T09:33:09.832Z,57.27
2019-04-02T09:34:12.492Z,56.93
2019-04-02T09:35:10.170Z,57.55
2019-04-02T09:36:09.880Z,57.66
2019-04-02T09:37:09.761Z,57.43
2019-04-02T09:38:09.833Z,57.51
2019-04-02T09:39:09.786Z,57.13
2019-04-02T09:40:09.898Z,57.1
2019-04-02T09:41:09.815Z,57.42
2019-04-02T09:42:09.767Z,57.1
2019-04-02T09:43:09.809Z,57.15
2019-04-02T09:44:12.036Z,57.33
2019-04-02T09:45:10.369Z,56.96
2019-04-02T09:46:09.765Z,56.84
2019-04-02T09:47:09.758Z,56.7
2019-04-02T09:48:09.726Z,56.74
2019-04-02T09:49:12.705Z,56.05
2019-04-02T09:50:09.736Z,56.21
2019-04-02T09:51:09.782Z,55.66
2019-04-02T09:52:09.733Z,55.61
2019-04-02T09:53:09.733Z,55.41
2019-04-02T09:54:09.750Z,55.77
2019-04-02T09:55:09.736Z,55.82
2019-04-02T09:56:09.766Z,55.97
2019-04-02T09:57:09.742Z,55.36
2019-04-02T09:58:09.764Z,55.09
2019-04-02T09:59:11.105Z,55.11
2019-04-02T10:00:09.792Z,55.49
2019-04-02T10:01:09.733Z,55.26
2019-04-02T10:02:09.717Z,55.13
2019-04-02T10:03:09.827Z,54.92
2019-04-02T10:04:09.740Z,54.77
2019-04-02T10:05:09.730Z,54.31
2019-04-02T10:06:09.786Z,54.11
2019-04-02T10:07:09.733Z,54.67
2019-04-02T10:08:09.720Z,54.6
2019-04-02T10:09:09.787Z,54.53
2019-04-02T10:10:09.827Z,54.68
2019-04-02T10:11:09.719Z,54.54
2019-04-02T10:12:09.706Z,54.24
2019-04-02T10:13:09.741Z,53.59
2019-04-02T10:14:09.687Z,53.59
2019-04-02T10:15:09.711Z,53.71
2019-04-02T10:16:11.837Z,53.62
2019-04-02T10:17:09.734Z,53.29
2019-04-02T10:18:10.315Z,53.49
2019-04-02T10:19:09.725Z,53.41
2019-04-02T10:20:09.747Z,52.92
2019-04-02T10:21:09.691Z,52.79
2019-04-02T10:22:09.750Z,52.94
2019-04-02T10:23:09.728Z,52.79
2019-04-02T10:24:09.796Z,52.33
2019-04-02T10:25:09.750Z,53.37
2019-04-02T10:26:09.708Z,52.83
2019-04-02T10:27:09.706Z,52.92
2019-04-02T10:28:09.705Z,52.95
2019-04-02T10:29:09.697Z,52.54
2019-04-02T10:30:09.683Z,53.32
2019-04-02T10:31:09.714Z,52.73
2019-04-02T10:32:09.790Z,53.37
2019-04-02T10:33:09.704Z,52.37
2019-04-02T10:34:09.741Z,52.39
2019-04-02T10:35:09.722Z,52.16
2019-04-02T10:36:09.675Z,52.41
2019-04-02T10:37:09.716Z,52.37
2019-04-02T10:38:09.686Z,52.07
2019-04-02T10:39:09.676Z,51.41
2019-04-02T10:40:09.961Z,52.81
2019-04-02T10:41:09.699Z,52.06
2019-04-02T10:42:09.734Z,51.86
2019-04-02T10:43:09.717Z,51.76
2019-04-02T10:44:09.680Z,51.78
2019-04-02T10:45:09.692Z,51.93
2019-04-02T10:46:09.661Z,51.89
2019-04-02T10:47:09.648Z,51.31
2019-04-02T10:48:09.907Z,51.37
2019-04-02T10:49:12.214Z,50.74
2019-04-02T10:50:09.720Z,50.86
2019-04-02T10:51:09.692Z,51.3
2019-04-02T10:52:09.697Z,52.01
2019-04-02T10:53:09.665Z,52.5
2019-04-02T10:54:09.764Z,52.21
2019-04-02T10:55:09.711Z,52.08
2019-04-02T10:56:09.676Z,51.55
2019-04-02T10:57:09.682Z,50.3
2019-04-02T10:58:12.362Z,50.73
2019-04-02T10:59:13.097Z,50.4
2019-04-02T11:00:09.725Z,49.69
2019-04-02T11:01:11.747Z,50.56
2019-04-02T11:02:09.667Z,50.1
2019-04-02T11:03:09.750Z,50.06
2019-04-02T11:04:09.652Z,49.72
2019-04-02T11:05:09.696Z,49.15
2019-04-02T11:06:09.670Z,48.74
2019-04-02T11:07:14.371Z,49.9
2019-04-02T11:08:09.731Z,50.27
2019-04-02T11:09:09.779Z,50.63
2019-04-02T11:10:09.734Z,50.28
2019-04-02T11:11:09.672Z,49.38
2019-04-02T11:12:09.706Z,49.6
2019-04-02T11:13:12.359Z,49.98
2019-04-02T11:14:13.402Z,50.24
2019-04-02T11:15:09.655Z,50.09
2019-04-02T11:16:09.885Z,50.22
2019-04-02T11:17:09.669Z,49.31
2019-04-02T11:18:09.623Z,48.42
2019-04-02T11:19:09.749Z,48.26
2019-04-02T11:20:09.623Z,48.43
2019-04-02T11:21:09.720Z,48.66
2019-04-02T11:22:09.887Z,48.44
2019-04-02T11:23:09.927Z,49.13
2019-04-02T11:24:09.707Z,49.11
2019-04-02T11:25:09.717Z,49.6
2019-04-02T11:26:09.723Z,48.91
2019-04-02T11:27:09.627Z,48.55
2019-04-02T11:28:09.588Z,47.19
2019-04-02T11:29:09.617Z,48.04
2019-04-02T11:30:09.660Z,48.24
2019-04-02T11:31:09.629Z,48.21
2019-04-02T11:32:09.721Z,48.36
2019-04-02T11:33:09.670Z,48.46
2019-04-02T11:34:09.852Z,49.12
2019-04-02T11:35:09.628Z,48.25
2019-04-02T11:36:09.783Z,48.16
2019-04-02T11:37:15.481Z,47.5
2019-04-02T11:38:09.650Z,48.21
2019-04-02T11:39:09.684Z,48.17
2019-04-02T11:40:09.692Z,47.4
2019-04-02T11:41:09.618Z,47.53
2019-04-02T11:42:09.624Z,46.59
2019-04-02T11:43:09.696Z,46.31
2019-04-02T11:44:10.240Z,45.29
2019-04-02T11:45:09.843Z,44.75
2019-04-02T11:46:09.626Z,45.33
2019-04-02T11:47:09.639Z,45.41
2019-04-02T11:48:09.629Z,44.84
2019-04-02T11:49:09.589Z,45.4
2019-04-02T11:50:09.628Z,45.3
2019-04-02T11:51:10.226Z,45.21
2019-04-02T11:52:09.998Z,43.86
2019-04-02T11:53:09.955Z,44.09
2019-04-02T11:54:24.078Z,44.78
2019-04-02T11:55:09.601Z,44.14
2019-04-02T11:56:09.615Z,44.45
2019-04-02T11:57:10.154Z,44.94
2019-04-02T11:58:17.621Z,43.71
2019-04-02T11:59:09.645Z,43.62
2019-04-02T12:00:09.615Z,44.44
2019-04-02T12:01:09.593Z,43.42
2019-04-02T12:02:09.716Z,43.5
2019-04-02T12:03:09.580Z,42.81
2019-04-02T12:04:11.699Z,42.63
2019-04-02T12:05:21.694Z,44.75
2019-04-02T12:06:09.964Z,43.49
2019-04-02T12:07:11.258Z,42.83
2019-04-02T12:08:19.350Z,41.89
2019-04-02T12:10:09.559Z,38.82
2019-04-02T12:11:09.564Z,40.2
2019-04-02T12:12:09.615Z,40.34
2019-04-02T12:13:09.647Z,37.9
2019-04-02T12:14:09.585Z,38.73
2019-04-02T12:15:09.609Z,40.66
2019-04-02T12:16:09.564Z,40.64
2019-04-02T12:17:09.629Z,41.05
2019-04-02T12:18:09.699Z,41.79
2019-04-02T12:19:11.878Z,40.63
2019-04-02T12:20:09.553Z,40.29
2019-04-02T12:21:12.329Z,38.06
2019-04-02T12:22:12.323Z,38.32
2019-04-02T12:23:09.550Z,37.72
2019-04-02T12:24:12.550Z,36.67
2019-04-02T12:25:11.557Z,38.27
2019-04-02T12:26:09.676Z,36.61
2019-04-02T12:27:09.572Z,37.52
2019-04-02T12:28:10.712Z,38.4
2019-04-02T12:29:09.563Z,38.38
2019-04-02T12:30:09.556Z,38.34
2019-04-02T12:31:09.554Z,37.47
2019-04-02T12:32:09.540Z,37.17
2019-04-02T12:33:09.569Z,35.98
2019-04-02T12:34:11.329Z,36.72
2019-04-02T12:35:09.553Z,35.79
2019-04-02T12:36:12.305Z,37.71
2019-04-02T12:37:12.305Z,37.76
2019-04-02T12:38:12.538Z,36.02
2019-04-02T12:39:12.777Z,37.57
2019-04-02T12:40:11.978Z,36.97
2019-04-02T12:41:10.308Z,38.16
2019-04-02T12:42:11.279Z,37.5
2019-04-02T12:43:09.555Z,38.86
2019-04-02T12:44:09.542Z,37.11
2019-04-02T12:45:09.557Z,38.03
2019-04-02T12:46:09.555Z,37.26
2019-04-02T12:47:09.521Z,35.31
2019-04-02T12:48:09.523Z,34.83
2019-04-02T12:49:09.643Z,33.01
2019-04-02T12:50:09.607Z,33.63
2019-04-02T12:51:10.742Z,33.23
2019-04-02T12:52:11.517Z,31.74
2019-04-02T12:53:09.541Z,30.92
2019-04-02T12:54:09.532Z,32.48
2019-04-02T12:55:09.558Z,30.94
2019-04-02T12:56:09.524Z,31.64